KHEZ/HEZ METAR and TAF weather

Enter ICAO airport designator
Station Type Date Time Source
KHEZ METAR 2020/01/19 22:56 UTC NOAA

KHEZ 192256Z AUTO 01011G17KT 10SM CLR 08/M03 A3042 RMK AO2 SLP301 T00831033


Station Type Date Time Source
KHEZ Decoded METAR 2020/01/19 22:56 UTC NOAA

Natchez, Hardy-Anders Field Natchez-Adams County Airport, MS, United States (KHEZ) 31-37N 091-18W
Jan 19, 2020 - 05:56 PM EST / 2020.01.19 2256 UTC
Wind: from the N (010 degrees) at 13 MPH (11 KT) gusting to 20 MPH (17 KT):0
Visibility: 10 mile(s):0
Sky conditions: clear
Temperature: 46.9 F (8.3 C)
Dew Point: 26.1 F (-3.3 C)
Relative Humidity: 43%
Pressure (altimeter): 30.42 in. Hg (1030 hPa)
ob: KHEZ 192256Z AUTO 01011G17KT 10SM CLR 08/M03 A3042 RMK AO2 SLP301 T00831033
cycle: 23

Station Type Date Time Source
KHEZ TAF UTC NOAA

Error!

Example: see airport list